Time;durP1;ratioP1;P1;durP2;ratioP2;P2;SDS_P1;SDS_P2;PMS_P1;PMS_P2;Temp;Humidity;BMP_temperature;BMP_pressure;BME280_temperature;BME280_humidity;BME280_pressure;Samples;Min_cycle;Max_cycle;Signal;HPM_P1;HPM_P2
2022/01/31 00:00:25;;;;;;;1.75;0.20;;;;;;;;;;4981159;28;20754;-79
2022/01/31 00:02:54;;;;;;;0.10;0.10;;;;;;;;;;5009283;28;20093;-78
2022/01/31 00:05:26;;;;;;;0.50;0.30;;;;;;;;;;5009060;28;20195;-78
2022/01/31 00:07:57;;;;;;;1.08;0.30;;;;;;;;;;4973008;28;20057;-78
2022/01/31 00:10:30;;;;;;;1.13;0.93;;;;;;;;;;5017901;28;20420;-79
2022/01/31 00:13:05;;;;;;;0.82;0.20;;;;;;;;;;5028861;28;20065;-78
2022/01/31 00:15:40;;;;;;;0.70;0.40;;;;;;;;;;5032477;28;20057;-79
2022/01/31 00:18:11;;;;;;;1.92;0.60;;;;;;;;;;5028167;28;20501;-78
2022/01/31 00:20:41;;;;;;;0.22;0.20;;;;;;;;;;5028183;28;20096;-74
2022/01/31 00:23:11;;;;;;;1.55;0.20;;;;;;;;;;5023474;28;20430;-78
2022/01/31 00:25:41;;;;;;;0.47;0.25;;;;;;;;;;5028595;28;20065;-76
2022/01/31 00:28:13;;;;;;;0.80;0.30;;;;;;;;;;4980056;28;20052;-78
2022/01/31 00:30:43;;;;;;;;;;;;;;;;;;5007923;28;20057;-76
2022/01/31 00:33:14;;;;;;;0.82;0.30;;;;;;;;;;5008659;28;20306;-79
2022/01/31 00:35:45;;;;;;;1.08;0.30;;;;;;;;;;5008562;28;20060;-74
2022/01/31 00:38:15;;;;;;;0.70;0.30;;;;;;;;;;5039318;28;20421;-76
2022/01/31 00:40:47;;;;;;;1.42;0.50;;;;;;;;;;5015189;28;20049;-78
2022/01/31 00:43:20;;;;;;;0.47;0.20;;;;;;;;;;5048344;28;20057;-79
2022/01/31 00:46:02;;;;;;;2.05;0.30;;;;;;;;;;5018718;28;20806;-73
2022/01/31 00:48:40;;;;;;;0.40;0.20;;;;;;;;;;5022787;28;20064;-76
2022/01/31 00:51:11;;;;;;;0.60;0.30;;;;;;;;;;5007866;28;20671;-78
2022/01/31 00:53:43;;;;;;;1.30;0.30;;;;;;;;;;4992568;28;20068;-77
2022/01/31 00:56:13;;;;;;;0.80;0.50;;;;;;;;;;5006212;28;20072;-78
2022/01/31 00:58:44;;;;;;;0.50;0.20;;;;;;;;;;4999474;28;20057;-77
2022/01/31 01:01:14;;;;;;;0.70;0.30;;;;;;;;;;5031959;28;20037;-78
2022/01/31 01:03:45;;;;;;;0.43;0.30;;;;;;;;;;5045792;28;20064;-80
2022/01/31 01:06:15;;;;;;;0.47;0.20;;;;;;;;;;5035713;28;20057;-79
2022/01/31 01:08:46;;;;;;;1.42;0.40;;;;;;;;;;5018785;28;20572;-79
2022/01/31 01:11:17;;;;;;;1.33;0.20;;;;;;;;;;5031716;28;20057;-78
2022/01/31 01:13:47;;;;;;;1.05;0.30;;;;;;;;;;5017016;28;20065;-76
2022/01/31 01:16:17;;;;;;;1.10;0.55;;;;;;;;;;5064850;28;20093;-79
2022/01/31 01:18:48;;;;;;;2.97;0.32;;;;;;;;;;5071655;28;20067;-78
2022/01/31 01:21:19;;;;;;;0.55;0.30;;;;;;;;;;5030758;28;20053;-78
2022/01/31 01:23:49;;;;;;;0.77;0.30;;;;;;;;;;5031320;28;20434;-81
2022/01/31 01:26:19;;;;;;;0.60;0.40;;;;;;;;;;5031189;28;20064;-79
2022/01/31 01:28:52;;;;;;;0.68;0.22;;;;;;;;;;4963487;28;20053;-78
2022/01/31 01:31:23;;;;;;;1.45;0.90;;;;;;;;;;4959530;28;20050;-76
2022/01/31 01:33:54;;;;;;;1.58;0.50;;;;;;;;;;4956506;28;20054;-79
2022/01/31 01:36:25;;;;;;;0.70;0.25;;;;;;;;;;4952913;28;20059;-75
2022/01/31 01:38:56;;;;;;;3.58;0.40;;;;;;;;;;4937680;28;20058;-79
2022/01/31 01:41:26;;;;;;;0.85;0.20;;;;;;;;;;4953294;28;20058;-79
2022/01/31 01:43:58;;;;;;;2.80;0.43;;;;;;;;;;4922212;28;20059;-78
2022/01/31 01:46:28;;;;;;;2.15;0.38;;;;;;;;;;4952485;28;20066;-77
2022/01/31 01:49:00;;;;;;;1.30;0.30;;;;;;;;;;4916799;29;20071;-75
2022/01/31 01:51:31;;;;;;;0.60;0.30;;;;;;;;;;4914326;29;20059;-78
2022/01/31 01:54:02;;;;;;;2.20;0.40;;;;;;;;;;4914690;29;20056;-78
2022/01/31 01:56:32;;;;;;;3.95;0.60;;;;;;;;;;4914811;29;20044;-73
2022/01/31 01:59:05;;;;;;;0.73;0.30;;;;;;;;;;4883866;29;20602;-78
2022/01/31 02:01:47;;;;;;;0.47;0.25;;;;;;;;;;4961864;28;20047;-78
2022/01/31 02:04:17;;;;;;;1.50;0.30;;;;;;;;;;4952823;28;20673;-78
2022/01/31 02:06:48;;;;;;;1.20;0.30;;;;;;;;;;4920284;28;20055;-77
2022/01/31 02:09:22;;;;;;;1.40;0.30;;;;;;;;;;4988630;28;20529;-76
2022/01/31 02:11:57;;;;;;;2.17;0.30;;;;;;;;;;4966023;28;20050;-79
2022/01/31 02:14:31;;;;;;;1.77;0.20;;;;;;;;;;4994294;28;20049;-78
2022/01/31 02:17:23;;;;;;;2.75;0.50;;;;;;;;;;4997841;28;20081;-79
2022/01/31 02:20:08;;;;;;;0.40;0.20;;;;;;;;;;4995930;28;20203;-77
2022/01/31 02:22:39;;;;;;;1.15;0.40;;;;;;;;;;4936460;28;20051;-79
2022/01/31 02:25:22;;;;;;;2.13;0.47;;;;;;;;;;4923415;28;20051;-77
2022/01/31 02:27:55;;;;;;;0.57;0.30;;;;;;;;;;4952853;28;20063;-78
2022/01/31 02:30:25;;;;;;;1.75;0.35;;;;;;;;;;4952503;28;20055;-79
2022/01/31 02:32:56;;;;;;;1.85;0.75;;;;;;;;;;4859153;28;20615;-79
2022/01/31 02:35:27;;;;;;;0.70;0.20;;;;;;;;;;4951930;28;20047;-78
2022/01/31 02:37:57;;;;;;;0.40;0.30;;;;;;;;;;4951676;28;20058;-79
2022/01/31 02:40:30;;;;;;;3.25;0.30;;;;;;;;;;4925501;29;20413;-80
2022/01/31 02:43:04;;;;;;;3.35;0.50;;;;;;;;;;4929194;29;20459;-79
2022/01/31 02:45:36;;;;;;;2.22;0.20;;;;;;;;;;4932800;29;20056;-80
2022/01/31 02:48:07;;;;;;;2.60;0.45;;;;;;;;;;4901567;29;20052;-79
2022/01/31 02:50:40;;;;;;;2.15;0.30;;;;;;;;;;4901615;29;20063;-79
2022/01/31 02:55:45;;;;;;;2.45;0.40;;;;;;;;;;4935995;29;20047;-79
2022/01/31 02:58:18;;;;;;;1.27;0.40;;;;;;;;;;4930930;29;20051;-79
2022/01/31 03:00:52;;;;;;;3.80;0.30;;;;;;;;;;4906212;28;20202;-79
2022/01/31 03:03:43;;;;;;;2.20;0.40;;;;;;;;;;4926397;29;20530;-79
2022/01/31 03:06:13;;;;;;;0.63;0.50;;;;;;;;;;4951210;29;20411;-80
2022/01/31 03:08:44;;;;;;;0.50;0.28;;;;;;;;;;4938682;29;20159;-80
2022/01/31 03:11:25;;;;;;;1.30;0.30;;;;;;;;;;4951788;29;20055;-80
2022/01/31 03:14:03;;;;;;;1.65;0.25;;;;;;;;;;4968602;28;20058;-79
2022/01/31 03:16:40;;;;;;;1.73;0.40;;;;;;;;;;4950920;28;20047;-78
2022/01/31 03:19:33;;;;;;;0.40;0.30;;;;;;;;;;4931094;29;20048;-78
2022/01/31 03:22:04;;;;;;;1.73;0.30;;;;;;;;;;4932103;29;20060;-78
2022/01/31 03:24:36;;;;;;;2.42;0.40;;;;;;;;;;4932400;29;20051;-78
2022/01/31 03:27:06;;;;;;;2.35;0.50;;;;;;;;;;4932158;29;20067;-78
2022/01/31 03:29:36;;;;;;;0.60;0.30;;;;;;;;;;4889685;29;20695;-79
2022/01/31 03:32:07;;;;;;;2.70;0.28;;;;;;;;;;4881794;29;20063;-77
2022/01/31 03:34:38;;;;;;;0.75;0.30;;;;;;;;;;4913047;29;20087;-78
2022/01/31 03:37:08;;;;;;;0.88;0.40;;;;;;;;;;4913276;29;20475;-79
2022/01/31 03:39:39;;;;;;;0.93;0.40;;;;;;;;;;4913031;29;20052;-77
2022/01/31 03:42:09;;;;;;;0.63;0.30;;;;;;;;;;4906782;29;20053;-78
2022/01/31 03:44:42;;;;;;;0.65;0.40;;;;;;;;;;4912637;29;20059;-80
2022/01/31 03:47:21;;;;;;;0.82;0.40;;;;;;;;;;4896978;29;20075;-79
2022/01/31 03:49:51;;;;;;;5.60;0.40;;;;;;;;;;4936601;28;20416;-80
2022/01/31 03:52:23;;;;;;;0.88;0.30;;;;;;;;;;4950500;28;20134;-79
2022/01/31 03:54:56;;;;;;;0.52;0.30;;;;;;;;;;4935880;28;20063;-79
2022/01/31 03:57:28;;;;;;;7.55;0.57;;;;;;;;;;4931509;28;20100;-80
2022/01/31 04:00:18;;;;;;;2.33;0.45;;;;;;;;;;4904806;28;20063;-78
2022/01/31 04:02:48;;;;;;;0.80;0.40;;;;;;;;;;4932314;28;20055;-78
2022/01/31 04:05:18;;;;;;;1.25;0.38;;;;;;;;;;4931804;29;20563;-79
2022/01/31 04:07:48;;;;;;;0.45;0.20;;;;;;;;;;4931930;29;20504;-79
2022/01/31 04:10:18;;;;;;;2.15;0.30;;;;;;;;;;4915615;29;20048;-78
2022/01/31 04:12:49;;;;;;;1.60;0.40;;;;;;;;;;4896673;29;20060;-79
2022/01/31 04:15:19;;;;;;;2.83;0.40;;;;;;;;;;4913162;29;20056;-79
2022/01/31 04:17:49;;;;;;;1.77;0.30;;;;;;;;;;4913341;29;20064;-78
2022/01/31 04:20:20;;;;;;;1.67;0.90;;;;;;;;;;4925579;29;20424;-78
2022/01/31 04:22:58;;;;;;;1.42;0.50;;;;;;;;;;4931417;29;20078;-77
2022/01/31 04:25:31;;;;;;;2.40;0.45;;;;;;;;;;4960316;28;20094;-79
2022/01/31 04:28:03;;;;;;;2.05;0.40;;;;;;;;;;4983568;28;20042;-79
2022/01/31 04:30:45;;;;;;;4.93;0.63;;;;;;;;;;5017767;28;20065;-78
2022/01/31 04:33:16;;;;;;;1.17;0.50;;;;;;;;;;5045021;28;20045;-79
2022/01/31 04:35:46;;;;;;;2.25;0.70;;;;;;;;;;5042284;28;20079;-78
2022/01/31 04:38:17;;;;;;;2.72;0.32;;;;;;;;;;5106135;28;20554;-79
2022/01/31 04:40:49;;;;;;;0.93;0.32;;;;;;;;;;5042008;28;20310;-79
2022/01/31 04:43:21;;;;;;;2.45;0.50;;;;;;;;;;5111981;28;20100;-79
2022/01/31 04:45:51;;;;;;;0.50;0.40;;;;;;;;;;5075749;28;20064;-79
2022/01/31 04:48:22;;;;;;;2.05;0.30;;;;;;;;;;5075340;28;20044;-78
2022/01/31 04:50:51;;;;;;;7.05;0.60;;;;;;;;;;5112323;28;20060;-78
2022/01/31 04:53:22;;;;;;;1.98;0.50;;;;;;;;;;5111500;28;20047;-79
2022/01/31 04:55:52;;;;;;;3.25;0.50;;;;;;;;;;5111284;28;20055;-78
2022/01/31 04:58:23;;;;;;;1.55;0.50;;;;;;;;;;5076194;28;20063;-79
2022/01/31 05:00:52;;;;;;;3.95;0.40;;;;;;;;;;5112115;28;20052;-77
2022/01/31 05:03:24;;;;;;;3.85;0.50;;;;;;;;;;5076300;28;20055;-76
2022/01/31 05:05:54;;;;;;;3.08;0.30;;;;;;;;;;5075264;28;20055;-79
2022/01/31 05:08:27;;;;;;;12.25;0.50;;;;;;;;;;5058683;28;20055;-80
2022/01/31 05:10:57;;;;;;;2.03;0.40;;;;;;;;;;5111848;28;20423;-79
2022/01/31 05:13:27;;;;;;;0.50;0.30;;;;;;;;;;5110054;28;20052;-75
2022/01/31 05:15:57;;;;;;;3.47;0.40;;;;;;;;;;5111863;28;20072;-78
2022/01/31 05:18:27;;;;;;;1.77;0.40;;;;;;;;;;5112406;28;20058;-75
2022/01/31 05:20:57;;;;;;;1.15;0.40;;;;;;;;;;5111436;28;20054;-79
2022/01/31 05:23:29;;;;;;;4.22;0.50;;;;;;;;;;5112007;28;20043;-80
2022/01/31 05:25:59;;;;;;;2.97;0.38;;;;;;;;;;5111741;28;20491;-79
2022/01/31 05:28:30;;;;;;;3.20;0.45;;;;;;;;;;5075930;28;20048;-80
2022/01/31 05:31:00;;;;;;;1.13;0.40;;;;;;;;;;5110941;28;20048;-80
2022/01/31 05:33:31;;;;;;;1.33;0.50;;;;;;;;;;5092417;28;20498;-79
2022/01/31 05:36:00;;;;;;;2.35;0.40;;;;;;;;;;5058478;28;20056;-79
2022/01/31 05:38:34;;;;;;;1.23;0.40;;;;;;;;;;5057995;28;20056;-80
2022/01/31 05:41:08;;;;;;;0.80;0.50;;;;;;;;;;5043113;28;20055;-79
2022/01/31 05:43:39;;;;;;;1.02;0.63;;;;;;;;;;5114468;28;20055;-79
2022/01/31 05:46:09;;;;;;;2.10;0.70;;;;;;;;;;5115440;28;20059;-81
2022/01/31 05:48:39;;;;;;;1.83;0.47;;;;;;;;;;5096661;28;20055;-75
2022/01/31 05:51:18;;;;;;;1.50;0.38;;;;;;;;;;5115449;28;20051;-79
2022/01/31 05:53:50;;;;;;;1.42;0.30;;;;;;;;;;5096472;28;20055;-78
2022/01/31 05:56:20;;;;;;;1.45;0.40;;;;;;;;;;5114039;28;20043;-78
2022/01/31 05:58:50;;;;;;;3.50;1.00;;;;;;;;;;5114178;28;20418;-77
2022/01/31 06:01:21;;;;;;;0.77;0.50;;;;;;;;;;5061555;28;20043;-79
2022/01/31 06:03:51;;;;;;;2.85;0.60;;;;;;;;;;5091171;28;20048;-79
2022/01/31 06:06:22;;;;;;;4.47;0.50;;;;;;;;;;5034360;28;20049;-79
2022/01/31 06:08:52;;;;;;;1.58;0.52;;;;;;;;;;5050853;28;20049;-78
2022/01/31 06:11:22;;;;;;;2.25;0.60;;;;;;;;;;5051061;28;20076;-77
2022/01/31 06:13:55;;;;;;;3.65;0.60;;;;;;;;;;5030787;28;20409;-78
2022/01/31 06:16:26;;;;;;;3.03;0.35;;;;;;;;;;4971550;28;20047;-77
2022/01/31 06:18:57;;;;;;;1.20;0.50;;;;;;;;;;4972095;28;20096;-78
2022/01/31 06:21:27;;;;;;;0.88;0.50;;;;;;;;;;4972146;28;20536;-79
2022/01/31 06:23:57;;;;;;;3.40;0.60;;;;;;;;;;4972130;28;20054;-79
2022/01/31 06:26:29;;;;;;;2.42;0.50;;;;;;;;;;4971845;28;20062;-78
2022/01/31 06:29:21;;;;;;;3.28;0.73;;;;;;;;;;4991107;28;20465;-79
2022/01/31 06:31:58;;;;;;;3.75;0.55;;;;;;;;;;4945074;28;20438;-79
2022/01/31 06:34:28;;;;;;;1.13;0.50;;;;;;;;;;4990865;28;20054;-78
2022/01/31 06:37:02;;;;;;;2.40;0.60;;;;;;;;;;4991108;28;20050;-78
2022/01/31 06:39:32;;;;;;;8.00;0.60;;;;;;;;;;4991426;28;20062;-79
2022/01/31 06:42:03;;;;;;;4.93;0.60;;;;;;;;;;4991129;28;20764;-78
2022/01/31 06:44:36;;;;;;;10.30;1.33;;;;;;;;;;4974979;28;20058;-80
2022/01/31 06:47:06;;;;;;;2.03;0.50;;;;;;;;;;4990922;28;20069;-79
2022/01/31 06:49:37;;;;;;;5.28;0.65;;;;;;;;;;4958217;28;20054;-80
2022/01/31 06:52:07;;;;;;;4.68;0.93;;;;;;;;;;5005363;28;20129;-77
2022/01/31 06:54:37;;;;;;;1.05;0.57;;;;;;;;;;4972389;28;20053;-78
2022/01/31 06:57:08;;;;;;;3.03;0.60;;;;;;;;;;4977953;28;20050;-78
2022/01/31 06:59:38;;;;;;;1.23;0.38;;;;;;;;;;5012758;28;20057;-77
2022/01/31 07:02:09;;;;;;;1.90;0.68;;;;;;;;;;4970625;28;20055;-80
2022/01/31 07:04:39;;;;;;;1.85;0.47;;;;;;;;;;4971288;28;20062;-79
2022/01/31 07:07:09;;;;;;;4.32;0.60;;;;;;;;;;4971444;28;20067;-78
2022/01/31 07:09:40;;;;;;;1.67;0.60;;;;;;;;;;4971037;28;20059;-75
2022/01/31 07:12:12;;;;;;;2.45;0.50;;;;;;;;;;4991721;28;20058;-76
2022/01/31 07:14:43;;;;;;;1.58;0.30;;;;;;;;;;5009897;28;20058;-77
2022/01/31 07:17:13;;;;;;;3.55;0.60;;;;;;;;;;5009895;28;20214;-76
2022/01/31 07:19:43;;;;;;;2.97;0.82;;;;;;;;;;5009976;28;20430;-79
2022/01/31 07:22:15;;;;;;;2.00;0.50;;;;;;;;;;4930523;28;20167;-79
2022/01/31 07:24:49;;;;;;;2.00;0.40;;;;;;;;;;4990175;28;20522;-78
2022/01/31 07:27:21;;;;;;;4.65;0.60;;;;;;;;;;4989275;28;20043;-78
2022/01/31 07:29:51;;;;;;;3.20;0.65;;;;;;;;;;4989900;28;20057;-78
2022/01/31 07:32:22;;;;;;;1.38;0.52;;;;;;;;;;4990209;28;20502;-77
2022/01/31 07:34:55;;;;;;;0.80;0.50;;;;;;;;;;4985534;28;20768;-78
2022/01/31 07:37:26;;;;;;;2.25;0.60;;;;;;;;;;5009435;28;20061;-78
2022/01/31 07:39:58;;;;;;;4.78;0.70;;;;;;;;;;5043427;28;20079;-73
2022/01/31 07:42:29;;;;;;;1.95;0.50;;;;;;;;;;5069353;28;20063;-77
2022/01/31 07:45:01;;;;;;;5.60;0.60;;;;;;;;;;5069067;28;20044;-78
2022/01/31 07:47:40;;;;;;;2.78;0.90;;;;;;;;;;5069034;28;20412;-78
2022/01/31 07:50:12;;;;;;;2.00;0.60;;;;;;;;;;5068517;28;20064;-79
2022/01/31 07:52:43;;;;;;;;;;;;;;;;;;5069765;28;20067;-76
2022/01/31 07:55:14;;;;;;;3.20;0.43;;;;;;;;;;5048747;28;19921;-78
2022/01/31 07:57:46;;;;;;;1.80;0.50;;;;;;;;;;5048945;28;20520;-76
2022/01/31 08:00:18;;;;;;;2.38;0.60;;;;;;;;;;5048898;28;20061;-78
2022/01/31 08:02:52;;;;;;;1.85;0.52;;;;;;;;;;5034421;28;20512;-78
2022/01/31 08:05:23;;;;;;;1.92;0.73;;;;;;;;;;5088538;28;20055;-78
2022/01/31 08:07:53;;;;;;;3.78;0.82;;;;;;;;;;5088906;28;20048;-78
2022/01/31 08:10:23;;;;;;;3.13;0.70;;;;;;;;;;5089149;28;20506;-78
2022/01/31 08:12:55;;;;;;;3.10;0.50;;;;;;;;;;5038974;28;20059;-78
2022/01/31 08:15:32;;;;;;;3.00;0.50;;;;;;;;;;5072907;28;20066;-79
2022/01/31 08:18:03;;;;;;;2.33;0.60;;;;;;;;;;5048492;28;20513;-76
2022/01/31 08:20:33;;;;;;;1.77;0.70;;;;;;;;;;5048306;28;20067;-77
2022/01/31 08:23:04;;;;;;;3.20;0.60;;;;;;;;;;5048145;28;20075;-78
2022/01/31 08:25:36;;;;;;;1.48;0.50;;;;;;;;;;5032343;28;20060;-78
2022/01/31 08:28:11;;;;;;;2.03;0.70;;;;;;;;;;5015146;28;20064;-79
2022/01/31 08:30:53;;;;;;;1.88;0.50;;;;;;;;;;5000108;28;20595;-75
2022/01/31 08:33:38;;;;;;;5.03;0.70;;;;;;;;;;5031328;28;20059;-76
2022/01/31 08:36:10;;;;;;;1.67;0.60;;;;;;;;;;5035267;28;20044;-76
2022/01/31 08:38:42;;;;;;;2.55;0.65;;;;;;;;;;5018631;28;20562;-78
2022/01/31 08:41:13;;;;;;;1.80;0.63;;;;;;;;;;5068429;28;20436;-77
2022/01/31 08:43:44;;;;;;;2.50;1.02;;;;;;;;;;5018598;28;20055;-79
2022/01/31 08:46:15;;;;;;;3.90;0.95;;;;;;;;;;5018395;28;20056;-75
2022/01/31 08:48:46;;;;;;;3.25;0.55;;;;;;;;;;5068386;28;21226;-77
2022/01/31 08:51:17;;;;;;;1.48;0.50;;;;;;;;;;5004144;28;20054;-77
2022/01/31 08:53:48;;;;;;;1.48;0.63;;;;;;;;;;5008240;28;20545;-77
2022/01/31 08:56:20;;;;;;;1.58;0.70;;;;;;;;;;5038418;28;20060;-78
2022/01/31 08:58:51;;;;;;;1.75;0.55;;;;;;;;;;5031949;28;20064;-77
2022/01/31 09:01:23;;;;;;;2.67;0.70;;;;;;;;;;5031722;28;20053;-77
2022/01/31 09:06:26;;;;;;;2.10;0.63;;;;;;;;;;5048118;28;20513;-77
2022/01/31 09:08:58;;;;;;;3.35;0.73;;;;;;;;;;5031673;28;20053;-79
2022/01/31 09:11:29;;;;;;;1.25;0.57;;;;;;;;;;5030998;28;20056;-78
2022/01/31 09:14:00;;;;;;;3.85;1.25;;;;;;;;;;5047943;28;20045;-75
2022/01/31 09:16:31;;;;;;;1.55;0.63;;;;;;;;;;5051429;28;20057;-79
2022/01/31 09:19:02;;;;;;;2.17;0.50;;;;;;;;;;5051892;28;20057;-78
2022/01/31 09:21:34;;;;;;;1.88;0.50;;;;;;;;;;5011841;28;20065;-77
2022/01/31 09:24:04;;;;;;;71.90;36.75;;;;;;;;;;5012089;28;20137;-76
2022/01/31 09:26:37;;;;;;;48.85;24.48;;;;;;;;;;4980939;28;20064;-75
2022/01/31 09:29:07;;;;;;;3.05;1.40;;;;;;;;;;5034664;28;20088;-76
2022/01/31 09:31:38;;;;;;;2.35;1.35;;;;;;;;;;5051722;28;20049;-77
2022/01/31 09:34:08;;;;;;;2.70;0.82;;;;;;;;;;5051745;28;20064;-76
2022/01/31 09:36:39;;;;;;;1.48;0.63;;;;;;;;;;5051349;28;20045;-75
2022/01/31 09:39:09;;;;;;;4.07;1.00;;;;;;;;;;5031569;28;20053;-73
2022/01/31 09:41:42;;;;;;;6.07;1.10;;;;;;;;;;4966596;28;20048;-75
2022/01/31 09:44:25;;;;;;;2.53;0.70;;;;;;;;;;4979229;28;20067;-74
2022/01/31 09:49:46;;;;;;;2.33;1.20;;;;;;;;;;5011400;28;20057;-75
2022/01/31 09:52:16;;;;;;;4.47;1.40;;;;;;;;;;4979919;28;20518;-75
2022/01/31 09:54:48;;;;;;;4.20;1.40;;;;;;;;;;5011657;28;20054;-74
2022/01/31 09:57:19;;;;;;;5.20;1.90;;;;;;;;;;4972242;28;20054;-75
2022/01/31 09:59:49;;;;;;;5.90;2.42;;;;;;;;;;4972384;28;20470;-74
2022/01/31 10:02:20;;;;;;;7.63;2.35;;;;;;;;;;4940368;28;20082;-75
2022/01/31 10:04:50;;;;;;;12.73;2.72;;;;;;;;;;4952975;29;20058;-74
2022/01/31 10:07:21;;;;;;;5.95;2.20;;;;;;;;;;4906810;29;20051;-75
2022/01/31 10:09:51;;;;;;;3.88;1.60;;;;;;;;;;4952875;29;20067;-76
2022/01/31 10:12:31;;;;;;;5.07;2.50;;;;;;;;;;4953382;29;20516;-77
2022/01/31 10:18:01;;;;;;;6.05;1.85;;;;;;;;;;4973421;28;20050;-78
2022/01/31 10:20:35;;;;;;;4.88;1.95;;;;;;;;;;4963666;28;20089;-77
2022/01/31 10:23:10;;;;;;;5.03;2.58;;;;;;;;;;5050613;28;20086;-78
2022/01/31 10:25:42;;;;;;;5.38;1.75;;;;;;;;;;5017803;28;20426;-79
2022/01/31 10:28:19;;;;;;;3.72;1.50;;;;;;;;;;5048959;28;20064;-79
2022/01/31 10:30:51;;;;;;;4.00;1.75;;;;;;;;;;5050493;28;20049;-79
2022/01/31 10:33:27;;;;;;;5.40;1.55;;;;;;;;;;4978677;28;20049;-74
2022/01/31 10:35:57;;;;;;;2.75;1.52;;;;;;;;;;5047871;28;20055;-72
2022/01/31 10:38:35;;;;;;;4.78;1.65;;;;;;;;;;5002181;28;20432;-74
2022/01/31 10:44:46;;;;;;;3.67;2.33;;;;;;;;;;5031212;28;20524;-74
2022/01/31 10:53:11;;;;;;;3.95;1.50;;;;;;;;;;4991199;28;20658;-70
2022/01/31 10:55:51;;;;;;;3.28;1.60;;;;;;;;;;4990835;28;20574;-71
2022/01/31 10:58:22;;;;;;;6.22;1.77;;;;;;;;;;4991112;28;20055;-72
2022/01/31 11:00:53;;;;;;;4.47;2.22;;;;;;;;;;4990833;28;20062;-72
2022/01/31 11:03:33;;;;;;;5.65;1.75;;;;;;;;;;4990886;28;20504;-70
2022/01/31 11:06:11;;;;;;;2.92;1.88;;;;;;;;;;4990810;28;20057;-70
2022/01/31 11:08:41;;;;;;;2.92;1.83;;;;;;;;;;4990715;28;20076;-69
2022/01/31 11:11:12;;;;;;;3.60;1.20;;;;;;;;;;4981962;28;20057;-70
2022/01/31 11:13:43;;;;;;;3.08;1.10;;;;;;;;;;4990760;28;20050;-70
2022/01/31 11:16:19;;;;;;;4.18;1.35;;;;;;;;;;4990719;28;20055;-72
2022/01/31 11:18:50;;;;;;;2.55;0.90;;;;;;;;;;4990601;28;20053;-70
2022/01/31 11:21:25;;;;;;;3.33;1.85;;;;;;;;;;4958854;28;20065;-71
2022/01/31 11:24:02;;;;;;;2.97;1.52;;;;;;;;;;4926018;28;20411;-70
2022/01/31 11:26:41;;;;;;;3.05;0.90;;;;;;;;;;4976913;28;20502;-70
2022/01/31 11:29:11;;;;;;;3.00;1.42;;;;;;;;;;5010011;28;20501;-72
2022/01/31 11:31:42;;;;;;;2.75;1.33;;;;;;;;;;4993449;28;20066;-70
2022/01/31 11:34:13;;;;;;;6.00;3.20;;;;;;;;;;5009796;28;20049;-71
2022/01/31 11:36:46;;;;;;;2.28;1.33;;;;;;;;;;5009746;28;20510;-71
2022/01/31 11:39:17;;;;;;;4.32;2.17;;;;;;;;;;5008890;28;20449;-70
2022/01/31 11:41:53;;;;;;;1.90;0.90;;;;;;;;;;5009877;28;20069;-70
2022/01/31 11:44:34;;;;;;;2.67;1.23;;;;;;;;;;4993625;28;20053;-70
2022/01/31 11:47:08;;;;;;;2.97;1.20;;;;;;;;;;4993687;28;20046;-70
2022/01/31 11:49:52;;;;;;;2.25;1.17;;;;;;;;;;5025964;28;20053;-71
2022/01/31 11:52:24;;;;;;;1.77;0.85;;;;;;;;;;4996624;28;20038;-71
2022/01/31 11:54:58;;;;;;;2.72;1.00;;;;;;;;;;5029376;28;20069;-71
2022/01/31 11:57:36;;;;;;;1.80;1.05;;;;;;;;;;5013835;28;20405;-70
2022/01/31 12:00:10;;;;;;;2.28;1.20;;;;;;;;;;4981386;28;20079;-71
2022/01/31 12:02:49;;;;;;;6.82;1.40;;;;;;;;;;5020115;28;20053;-71
2022/01/31 12:05:28;;;;;;;3.50;2.03;;;;;;;;;;5110719;28;20059;-72
2022/01/31 12:08:09;;;;;;;4.03;1.65;;;;;;;;;;5093977;28;20044;-70
2022/01/31 12:10:44;;;;;;;3.83;1.05;;;;;;;;;;5059425;28;20062;-71
2022/01/31 12:13:42;;;;;;;2.00;1.00;;;;;;;;;;5077728;28;20051;-71
2022/01/31 12:16:50;;;;;;;17.88;3.50;;;;;;;;;;5068562;28;20053;-71
2022/01/31 12:22:45;;;;;;;2.05;0.93;;;;;;;;;;5052072;28;20057;-71
2022/01/31 12:25:30;;;;;;;10.13;1.40;;;;;;;;;;5019459;28;20059;-71
2022/01/31 12:28:43;;;;;;;3.95;1.38;;;;;;;;;;5068473;28;20061;-72
2022/01/31 12:31:27;;;;;;;4.00;1.58;;;;;;;;;;5068475;28;20144;-73
2022/01/31 12:33:58;;;;;;;5.20;1.40;;;;;;;;;;5068891;28;20063;-71
2022/01/31 12:36:39;;;;;;;3.03;2.10;;;;;;;;;;5036227;28;20084;-67
2022/01/31 12:39:35;;;;;;;10.55;2.33;;;;;;;;;;5008662;28;20053;-70
2022/01/31 12:45:39;;;;;;;11.73;1.30;;;;;;;;;;5008787;28;20065;-71
2022/01/31 12:48:16;;;;;;;9.07;1.08;;;;;;;;;;4992061;28;20532;-69
2022/01/31 12:50:49;;;;;;;6.68;2.78;;;;;;;;;;5008436;28;20122;-70
2022/01/31 12:53:45;;;;;;;4.93;1.25;;;;;;;;;;5019653;28;20057;-68
2022/01/31 12:56:24;;;;;;;6.72;2.40;;;;;;;;;;5016068;28;20052;-68
2022/01/31 12:59:09;;;;;;;5.43;1.70;;;;;;;;;;5048502;28;20037;-69
2022/01/31 13:01:43;;;;;;;3.42;1.02;;;;;;;;;;5032692;28;20049;-65
2022/01/31 13:04:28;;;;;;;2.00;0.85;;;;;;;;;;5032133;28;20057;-65
2022/01/31 13:07:07;;;;;;;4.88;0.88;;;;;;;;;;5015324;28;20053;-64
2022/01/31 13:10:12;;;;;;;2.47;1.02;;;;;;;;;;5008347;28;20525;-65
2022/01/31 13:12:43;;;;;;;4.05;1.00;;;;;;;;;;4960350;28;20045;-63
2022/01/31 13:15:22;;;;;;;1.45;0.63;;;;;;;;;;5008848;28;20068;-65
2022/01/31 13:18:02;;;;;;;;;;;;;;;;;;5032395;28;20060;-64
2022/01/31 13:20:34;;;;;;;2.45;0.80;;;;;;;;;;5019189;28;19924;-64
2022/01/31 13:23:13;;;;;;;3.33;1.15;;;;;;;;;;5068165;28;20044;-64
2022/01/31 13:25:43;;;;;;;1.88;0.80;;;;;;;;;;5068123;28;20144;-63
2022/01/31 13:28:15;;;;;;;2.88;1.00;;;;;;;;;;5018948;28;20053;-64
2022/01/31 13:30:45;;;;;;;2.63;0.80;;;;;;;;;;5068184;28;20100;-64
2022/01/31 13:33:22;;;;;;;2.95;1.25;;;;;;;;;;5018421;28;20060;-63
2022/01/31 13:36:02;;;;;;;1.52;0.60;;;;;;;;;;5067807;28;20056;-63
2022/01/31 13:38:33;;;;;;;1.73;0.63;;;;;;;;;;4988208;28;20060;-63
2022/01/31 13:41:04;;;;;;;2.22;0.85;;;;;;;;;;5060408;28;20412;-64
2022/01/31 13:43:38;;;;;;;2.83;0.70;;;;;;;;;;5068021;28;20056;-64
2022/01/31 13:46:25;;;;;;;3.45;0.93;;;;;;;;;;5067889;28;20060;-63
2022/01/31 13:49:07;;;;;;;2.00;1.00;;;;;;;;;;5012962;28;20060;-63
2022/01/31 13:51:45;;;;;;;1.23;0.65;;;;;;;;;;5028037;28;20525;-64
2022/01/31 13:54:18;;;;;;;1.27;0.68;;;;;;;;;;5027693;28;20532;-64
2022/01/31 13:56:55;;;;;;;3.90;0.80;;;;;;;;;;5027850;28;20057;-63
2022/01/31 13:59:48;;;;;;;1.75;0.80;;;;;;;;;;5027930;28;20069;-64
2022/01/31 14:02:19;;;;;;;2.10;0.68;;;;;;;;;;5029317;28;20182;-63
2022/01/31 14:04:50;;;;;;;2.10;0.70;;;;;;;;;;5031540;28;20073;-63
2022/01/31 14:07:26;;;;;;;1.38;0.60;;;;;;;;;;4982183;28;20057;-64
2022/01/31 14:09:57;;;;;;;2.75;0.80;;;;;;;;;;5031271;28;20053;-64
2022/01/31 14:12:29;;;;;;;1.55;0.82;;;;;;;;;;5015022;28;20052;-64
2022/01/31 14:15:05;;;;;;;1.08;0.65;;;;;;;;;;4999177;28;20497;-64
2022/01/31 14:17:36;;;;;;;1.80;0.90;;;;;;;;;;5014987;28;20072;-64
2022/01/31 14:20:10;;;;;;;2.53;0.80;;;;;;;;;;5010953;28;20407;-64
2022/01/31 14:22:41;;;;;;;1.52;0.80;;;;;;;;;;5011356;28;20530;-64
2022/01/31 14:25:12;;;;;;;2.25;0.82;;;;;;;;;;5011285;28;20058;-65
2022/01/31 14:27:54;;;;;;;1.77;1.08;;;;;;;;;;5032855;28;20489;-67
2022/01/31 14:30:25;;;;;;;1.10;0.60;;;;;;;;;;5050636;28;20064;-65
2022/01/31 14:33:07;;;;;;;1.70;0.45;;;;;;;;;;5050745;28;20413;-64
2022/01/31 14:35:37;;;;;;;3.72;1.00;;;;;;;;;;5017254;28;20079;-64
2022/01/31 14:38:17;;;;;;;2.08;0.70;;;;;;;;;;5050158;28;20053;-65
2022/01/31 14:49:23;;;;;;;1.92;0.73;;;;;;;;;;5030580;28;20506;-64
2022/01/31 14:52:04;;;;;;;1.42;0.60;;;;;;;;;;4997964;28;20060;-66
2022/01/31 14:54:35;;;;;;;1.50;0.60;;;;;;;;;;5034831;28;20396;-67
2022/01/31 14:57:07;;;;;;;1.23;0.50;;;;;;;;;;5058699;28;20056;-66
2022/01/31 14:59:38;;;;;;;1.77;0.90;;;;;;;;;;5090255;28;20044;-65
2022/01/31 15:02:08;;;;;;;1.73;1.33;;;;;;;;;;5069901;28;20419;-68
2022/01/31 15:05:03;;;;;;;2.03;0.60;;;;;;;;;;5056523;28;20049;-68
2022/01/31 15:07:34;;;;;;;1.20;0.32;;;;;;;;;;5070047;28;20471;-68
2022/01/31 15:10:05;;;;;;;1.73;0.50;;;;;;;;;;5053865;28;20040;-68
2022/01/31 15:12:38;;;;;;;0.90;0.43;;;;;;;;;;5036664;28;20053;-66
2022/01/31 15:15:10;;;;;;;0.90;0.50;;;;;;;;;;5069834;28;20049;-65
2022/01/31 15:17:45;;;;;;;2.30;0.57;;;;;;;;;;5070081;28;20044;-66
2022/01/31 15:20:17;;;;;;;1.00;0.70;;;;;;;;;;5073010;28;20064;-69
2022/01/31 15:22:51;;;;;;;1.17;0.50;;;;;;;;;;5090383;28;20095;-66
2022/01/31 15:25:21;;;;;;;1.48;0.82;;;;;;;;;;5090072;28;20051;-67
2022/01/31 15:27:52;;;;;;;2.45;0.80;;;;;;;;;;5089985;28;20048;-65
2022/01/31 15:30:23;;;;;;;1.33;0.90;;;;;;;;;;5069602;28;20067;-67
2022/01/31 15:32:53;;;;;;;1.35;0.73;;;;;;;;;;5036344;28;20056;-67
2022/01/31 15:35:24;;;;;;;1.70;0.85;;;;;;;;;;5069991;28;20052;-66
2022/01/31 15:37:54;;;;;;;1.05;0.60;;;;;;;;;;5069305;28;20049;-67
2022/01/31 15:40:25;;;;;;;0.85;0.40;;;;;;;;;;5035130;28;20052;-67
2022/01/31 15:43:03;;;;;;;1.13;0.70;;;;;;;;;;5039741;28;20056;-67
2022/01/31 15:45:34;;;;;;;1.13;0.70;;;;;;;;;;5089677;28;20055;-67
2022/01/31 15:48:04;;;;;;;1.35;0.55;;;;;;;;;;5089645;28;20056;-66
2022/01/31 15:50:35;;;;;;;2.78;0.63;;;;;;;;;;5056190;28;20179;-64
2022/01/31 15:53:06;;;;;;;1.17;0.43;;;;;;;;;;5089505;28;20044;-68
2022/01/31 15:55:41;;;;;;;0.80;0.40;;;;;;;;;;5056748;28;20060;-64